Skip Navigation Links
NOAA logo - Click to go to the NOAA homepage
NOAA's National Weather Service
Alaska Aviation Weather Unit
  NWS logo - Click to go to the NWS homepage
Left Navbar Graphic     17 AKDT = 01 GMT

   
NOAA is celebrating 200 years of science, service, and stewardship. Visit the NOAA 200th celebration Web site to learn more.
USA.gov is the U.S. Government's official Web portal to all Federal, state and local government Web resources and services.
Facebook
NWS on Facebook

Important Change Regarding the AAWU Web Presence

 

Over the last several months, the AAWU has been working to navigate its webpages to a nationally supported server. Security, as well as other needs, have necessitated the change.  We have been given an extension for the site changeover while we diligently work at addressing feedback received. As of July 14, 2017, aawu.arh.noaa.gov will be discontinued. The new AAWU web address is weather.gov/aawu. It is now live and will run in-parallel with the old site until it is discontinued on July 14, 2017. Please continue to send any feedback or questions regarding the new webpages to nws.ar.aawu.webauthors@noaa.gov.  Thank you for your patience during this time of transition.
AAWU Home :: Display TAF Add Bookmark
SPECI PATE 171920Z AUTO 02004KT 10SM SCT025 M02/M04 A2956 RMK AO2
 FZRANO=

SPECI PATE 171952Z AUTO 02003KT 10SM BKN024 M02/M03 A2957 RMK AO2
 FZRANO=

METAR PATE 171956Z AUTO 02003KT 10SM BKN024 M02/M03 A2957 RMK AO2
 SLP019 T10171033 FZRANO=

METAR PATE 172056Z AUTO 02004KT 10SM BKN024 M01/M04 A2957 RMK AO2 SLP022
     T10111039 53005 FZRANO=

METAR PATE 172156Z AUTO 01005KT 10SM SCT026 M01/M04 A2957 RMK AO2
 SLP022 T10061039 FZRANO=

PATE 172207Z AUTO 03004KT 10SM BKN026 00/M04 A2957 RMK AO2
     FZRANO=

SPECI PATE 172243Z AUTO 01009KT 10SM SCT026 00/M04 A2957 RMK AO2
     FZRANO=

METAR PATE 172256Z AUTO 01010KT 10SM FEW026 01/M04 A2957 RMK AO2 SLP020
     T00061039 FZRANO=

SPECI PATE 172329Z AUTO 01010KT 10SM BKN027 01/M04 A2957 RMK AO2
     FZRANO=

METAR PATE 172356Z AUTO 02007KT 10SM OVC027 01/M03 A2957 RMK AO2 SLP021
     T00111033 10011 21022 55001 FZRANO=

SPECI PATE 180031Z AUTO 34009KT 10SM FEW025 SCT034 BKN060 01/M03 A2957
     RMK AO2 FZRANO=

METAR PATE 180056Z AUTO 34012KT 10SM BKN024 OVC032 02/M02 A2957 RMK AO2
     SLP019 T00171022 FZRANO=

SPECI PATE 180127Z AUTO 34007KT 10SM FEW017 SCT037 BKN080 01/M02 A2956
     RMK AO2 RAB00E13 P0000 FZRANO=


NOAA's National Weather Service
Alaska Aviation Weather Unit
6930 Sand Lake Road
Anchorage, AK 99502-1845
Disclaimer
Credits
Glossary
Privacy Policy
About Us
Career Opportunities
Contact AAWU Internet Services Site last modified: April, 17th 2012